createdAt,value
2023-06-30T00:00:19.256Z,1018.2
2023-06-30T00:02:19.290Z,1018.2
2023-06-30T00:04:24.261Z,1018.2
2023-06-30T00:06:19.216Z,1018.2
2023-06-30T00:08:19.280Z,1018.2
2023-06-30T00:10:19.256Z,1018.2
2023-06-30T00:12:19.287Z,1018.2
2023-06-30T00:14:23.574Z,1018.2
2023-06-30T00:16:19.326Z,1018.3
2023-06-30T00:18:20.479Z,1018.3
2023-06-30T00:20:20.465Z,1018.2
2023-06-30T00:22:20.203Z,1018.3
2023-06-30T00:24:19.183Z,1018.3
2023-06-30T00:26:20.383Z,1018.4
2023-06-30T00:28:20.340Z,1018.4
2023-06-30T00:30:19.243Z,1018.4
2023-06-30T00:32:19.190Z,1018.4
2023-06-30T00:34:19.171Z,1018.4
2023-06-30T00:36:19.154Z,1018.3
2023-06-30T00:38:19.238Z,1018.3
2023-06-30T00:40:19.216Z,1018.4
2023-06-30T00:42:25.276Z,1018.4
2023-06-30T00:44:19.260Z,1018.4
2023-06-30T00:46:19.241Z,1018.4
2023-06-30T00:48:19.211Z,1018.3
2023-06-30T00:50:19.294Z,1018.3
2023-06-30T00:52:19.297Z,1018.3
2023-06-30T00:54:19.159Z,1018.3
2023-06-30T00:56:19.212Z,1018.3
2023-06-30T00:58:20.401Z,1018.3
2023-06-30T01:00:19.228Z,1018.4
2023-06-30T01:02:19.272Z,1018.4
2023-06-30T01:04:19.235Z,1018.3
2023-06-30T01:06:19.139Z,1018.3
2023-06-30T01:08:20.089Z,1018.4
2023-06-30T01:10:19.094Z,1018.4
2023-06-30T01:12:19.123Z,1018.4
2023-06-30T01:14:19.139Z,1018.4
2023-06-30T01:16:19.210Z,1018.4
2023-06-30T01:18:25.261Z,1018.4
2023-06-30T01:20:20.433Z,1018.4
2023-06-30T01:22:19.165Z,1018.4
2023-06-30T01:24:19.105Z,1018.5
2023-06-30T01:26:25.323Z,1018.5
2023-06-30T01:28:19.990Z,1018.4
2023-06-30T01:30:19.118Z,1018.4
2023-06-30T01:32:20.290Z,1018.5
2023-06-30T01:34:19.151Z,1018.5
2023-06-30T01:36:19.114Z,1018.5
2023-06-30T01:38:19.289Z,1018.5
2023-06-30T01:40:19.136Z,1018.5
2023-06-30T01:42:19.171Z,1018.5
2023-06-30T01:44:19.089Z,1018.6
2023-06-30T01:46:19.124Z,1018.6
2023-06-30T01:48:19.108Z,1018.5
2023-06-30T01:50:19.124Z,1018.5
2023-06-30T01:52:19.106Z,1018.5
2023-06-30T01:54:27.573Z,1018.5
2023-06-30T01:56:19.125Z,1018.6
2023-06-30T01:58:19.082Z,1018.6
2023-06-30T02:00:19.123Z,1018.6
2023-06-30T02:02:19.061Z,1018.6
2023-06-30T02:04:19.199Z,1018.6
2023-06-30T02:06:20.529Z,1018.6
2023-06-30T02:08:19.087Z,1018.6
2023-06-30T02:10:19.087Z,1018.6
2023-06-30T02:12:19.048Z,1018.6
2023-06-30T02:14:19.158Z,1018.6
2023-06-30T02:16:19.345Z,1018.6
2023-06-30T02:18:19.059Z,1018.6
2023-06-30T02:20:20.467Z,1018.5
2023-06-30T02:22:19.087Z,1018.5
2023-06-30T02:24:19.109Z,1018.6
2023-06-30T02:26:19.123Z,1018.7
2023-06-30T02:28:19.421Z,1018.7
2023-06-30T02:30:19.125Z,1018.7
2023-06-30T02:32:20.001Z,1018.7
2023-06-30T02:34:19.273Z,1018.7
2023-06-30T02:36:19.037Z,1018.7
2023-06-30T02:38:19.046Z,1018.7
2023-06-30T02:40:19.169Z,1018.7
2023-06-30T02:42:19.042Z,1018.8
2023-06-30T02:44:19.037Z,1018.8
2023-06-30T02:46:19.085Z,1018.8
2023-06-30T02:48:19.063Z,1018.7
2023-06-30T02:50:27.701Z,1018.7
2023-06-30T02:52:19.042Z,1018.7
2023-06-30T02:54:19.049Z,1018.6
2023-06-30T02:56:19.009Z,1018.6
2023-06-30T02:58:19.080Z,1018.7
2023-06-30T03:00:19.065Z,1018.8
2023-06-30T03:02:19.294Z,1018.9
2023-06-30T03:04:20.553Z,1018.8
2023-06-30T03:06:18.990Z,1018.8
2023-06-30T03:08:18.999Z,1018.8
2023-06-30T03:10:19.077Z,1018.9
2023-06-30T03:12:21.820Z,1018.9
2023-06-30T03:14:26.091Z,1018.8
2023-06-30T03:16:21.276Z,1018.8
2023-06-30T03:18:19.055Z,1018.8
2023-06-30T03:20:19.032Z,1018.8
2023-06-30T03:22:19.000Z,1018.8
2023-06-30T03:24:19.028Z,1018.8
2023-06-30T03:26:22.936Z,1018.8
2023-06-30T03:28:18.957Z,1018.8
2023-06-30T03:30:21.134Z,1018.8
2023-06-30T03:32:19.045Z,1018.8
2023-06-30T03:34:18.984Z,1018.8
2023-06-30T03:36:19.037Z,1018.8
2023-06-30T03:38:19.014Z,1018.8
2023-06-30T03:40:19.007Z,1018.8
2023-06-30T03:42:19.010Z,1018.8
2023-06-30T03:44:19.050Z,1018.8
2023-06-30T03:46:19.092Z,1018.7
2023-06-30T03:48:18.899Z,1018.7
2023-06-30T03:50:18.969Z,1018.6
2023-06-30T03:52:18.988Z,1018.6
2023-06-30T03:54:18.942Z,1018.6
2023-06-30T03:56:18.967Z,1018.6
2023-06-30T03:58:18.914Z,1018.6
2023-06-30T04:00:18.941Z,1018.6
2023-06-30T04:02:21.494Z,1018.6
2023-06-30T04:04:19.153Z,1018.6
2023-06-30T04:06:19.024Z,1018.5
2023-06-30T04:08:19.273Z,1018.5
2023-06-30T04:10:20.820Z,1018.6
2023-06-30T04:12:18.929Z,1018.6
2023-06-30T04:14:18.931Z,1018.5
2023-06-30T04:16:18.962Z,1018.6
2023-06-30T04:18:18.945Z,1018.5
2023-06-30T04:20:19.026Z,1018.5
2023-06-30T04:22:18.994Z,1018.4
2023-06-30T04:24:20.085Z,1018.4
2023-06-30T04:26:19.015Z,1018.4
2023-06-30T04:28:18.973Z,1018.4
2023-06-30T04:30:18.945Z,1018.4
2023-06-30T04:32:18.895Z,1018.3
2023-06-30T04:34:18.910Z,1018.3
2023-06-30T04:36:18.892Z,1018.3
2023-06-30T04:38:24.187Z,1018.3
2023-06-30T04:40:18.948Z,1018.3
2023-06-30T04:42:18.949Z,1018.2
2023-06-30T04:44:18.916Z,1018.2
2023-06-30T04:46:18.938Z,1018.3
2023-06-30T04:48:18.896Z,1018.2
2023-06-30T04:50:20.904Z,1018.2
2023-06-30T04:52:18.893Z,1018.1
2023-06-30T04:54:18.992Z,1018.1
2023-06-30T04:56:20.158Z,1018
2023-06-30T04:58:18.899Z,1018.1
2023-06-30T05:00:21.074Z,1018.1
2023-06-30T05:02:18.954Z,1018.1
2023-06-30T05:04:18.949Z,1018.1
2023-06-30T05:06:18.989Z,1018
2023-06-30T05:18:55.520Z,1018.2
2023-06-30T05:20:18.901Z,1018.2
2023-06-30T05:48:50.317Z,1018.1
2023-06-30T05:50:18.850Z,1018.1
2023-06-30T05:52:24.916Z,1018.1
2023-06-30T05:54:18.843Z,1018.2
2023-06-30T05:56:18.845Z,1018.2
2023-06-30T05:58:29.088Z,1018.2
2023-06-30T06:00:18.878Z,1018.2
2023-06-30T06:02:18.968Z,1018.3
2023-06-30T06:04:25.857Z,1018.3
2023-06-30T06:06:19.487Z,1018.3
2023-06-30T06:08:18.898Z,1018.3
2023-06-30T06:10:21.033Z,1018.3
2023-06-30T06:12:18.837Z,1018.3
2023-06-30T06:14:20.826Z,1018.3
2023-06-30T06:16:18.914Z,1018.3
2023-06-30T06:18:21.413Z,1018.3
2023-06-30T06:20:26.178Z,1018.3
2023-06-30T06:22:20.942Z,1018.4
2023-06-30T06:24:18.928Z,1018.4
2023-06-30T06:26:21.650Z,1018.5
2023-06-30T06:28:22.540Z,1018.5
2023-06-30T06:30:18.900Z,1018.6
2023-06-30T06:32:25.962Z,1018.6
2023-06-30T06:34:21.388Z,1018.5
2023-06-30T06:36:21.599Z,1018.5
2023-06-30T06:38:18.756Z,1018.4
2023-06-30T06:40:18.773Z,1018.3
2023-06-30T06:42:19.803Z,1018.3
2023-06-30T06:44:18.812Z,1018.3
2023-06-30T06:46:18.854Z,1018.2
2023-06-30T06:48:18.920Z,1018.2
2023-06-30T06:50:18.764Z,1018.3
2023-06-30T06:52:18.749Z,1018.3
2023-06-30T06:54:23.780Z,1018.3
2023-06-30T06:56:19.825Z,1018.2
2023-06-30T06:58:18.783Z,1018.3
2023-06-30T07:00:19.254Z,1018.3
2023-06-30T07:02:20.919Z,1018.3
2023-06-30T07:04:18.766Z,1018.3
2023-06-30T07:06:30.769Z,1018.2
2023-06-30T07:08:19.783Z,1018.1
2023-06-30T07:10:21.357Z,1018.1
2023-06-30T07:12:18.901Z,1018
2023-06-30T07:14:20.219Z,1018
2023-06-30T07:16:18.811Z,1018
2023-06-30T07:18:18.928Z,1018
2023-06-30T07:20:18.740Z,1018
2023-06-30T07:22:21.528Z,1018
2023-06-30T07:24:22.205Z,1018.1
2023-06-30T07:26:26.593Z,1018.1
2023-06-30T07:28:18.727Z,1018.1
2023-06-30T07:30:18.773Z,1018
2023-06-30T07:32:20.981Z,1018
2023-06-30T07:34:20.682Z,1018
2023-06-30T07:36:19.743Z,1018
2023-06-30T07:38:18.754Z,1018
2023-06-30T07:40:19.908Z,1018
2023-06-30T07:42:18.723Z,1017.9
2023-06-30T07:44:18.719Z,1017.9
2023-06-30T07:46:18.837Z,1017.9
2023-06-30T07:48:21.741Z,1018
2023-06-30T07:50:18.767Z,1018
2023-06-30T07:52:18.691Z,1018
2023-06-30T07:54:21.485Z,1018.1
2023-06-30T07:56:18.785Z,1018
2023-06-30T07:58:18.693Z,1018
2023-06-30T08:00:18.762Z,1018
2023-06-30T08:02:18.702Z,1018
2023-06-30T08:04:18.756Z,1018
2023-06-30T08:06:18.745Z,1018
2023-06-30T08:08:18.667Z,1018
2023-06-30T08:10:19.918Z,1018
2023-06-30T08:12:18.694Z,1018
2023-06-30T08:14:18.645Z,1018
2023-06-30T08:16:18.740Z,1018
2023-06-30T08:18:25.458Z,1018
2023-06-30T08:20:18.756Z,1017.9
2023-06-30T08:22:18.720Z,1017.8
2023-06-30T08:24:19.786Z,1017.7
2023-06-30T08:26:18.774Z,1017.7
2023-06-30T08:28:18.694Z,1017.7
2023-06-30T08:30:20.231Z,1017.7
2023-06-30T08:32:19.800Z,1017.7
2023-06-30T08:34:18.707Z,1017.8
2023-06-30T08:36:18.701Z,1017.8
2023-06-30T08:38:18.650Z,1017.7
2023-06-30T08:40:18.627Z,1017.7
2023-06-30T08:42:18.666Z,1017.7
2023-06-30T08:44:18.706Z,1017.7
2023-06-30T08:46:18.620Z,1017.7
2023-06-30T08:48:18.714Z,1017.8
2023-06-30T08:50:18.634Z,1017.7
2023-06-30T08:52:18.667Z,1017.7
2023-06-30T08:54:18.619Z,1017.7
2023-06-30T08:56:18.707Z,1017.6
2023-06-30T08:58:25.126Z,1017.6
2023-06-30T09:00:18.689Z,1017.6
2023-06-30T09:02:18.696Z,1017.6
2023-06-30T09:04:18.698Z,1017.6
2023-06-30T09:06:18.620Z,1017.5
2023-06-30T09:08:18.614Z,1017.4
2023-06-30T09:10:18.597Z,1017.4
2023-06-30T09:12:18.650Z,1017.4
2023-06-30T09:14:18.662Z,1017.4
2023-06-30T09:16:19.619Z,1017.4
2023-06-30T09:18:18.577Z,1017.4
2023-06-30T09:20:18.630Z,1017.4
2023-06-30T09:22:52.614Z,1017.4
2023-06-30T09:24:18.585Z,1017.4
2023-06-30T09:26:18.632Z,1017.4
2023-06-30T09:28:18.584Z,1017.3
2023-06-30T09:30:21.786Z,1017.2
2023-06-30T09:32:18.625Z,1017.3
2023-06-30T09:34:18.707Z,1017.3
2023-06-30T09:36:18.703Z,1017.4
2023-06-30T09:38:18.632Z,1017.4
2023-06-30T09:40:20.890Z,1017.4
2023-06-30T09:42:22.957Z,1017.3
2023-06-30T09:44:18.669Z,1017.3
2023-06-30T09:46:18.637Z,1017.4
2023-06-30T09:48:18.617Z,1017.4
2023-06-30T09:50:21.076Z,1017.4
2023-06-30T09:52:19.598Z,1017.5
2023-06-30T09:54:23.602Z,1017.5
2023-06-30T09:56:18.691Z,1017.5
2023-06-30T09:58:18.698Z,1017.5
2023-06-30T10:00:34.347Z,1017.5
2023-06-30T10:02:18.716Z,1017.5
2023-06-30T10:04:18.751Z,1017.6
2023-06-30T10:06:21.092Z,1017.6
2023-06-30T10:08:18.747Z,1017.6
2023-06-30T10:10:18.636Z,1017.6
2023-06-30T10:12:18.525Z,1017.6
2023-06-30T10:14:18.618Z,1017.6
2023-06-30T10:16:18.610Z,1017.7
2023-06-30T10:18:19.807Z,1017.7
2023-06-30T10:20:18.684Z,1017.7
2023-06-30T10:22:20.842Z,1017.8
2023-06-30T10:24:18.572Z,1017.7
2023-06-30T10:26:18.599Z,1017.7
2023-06-30T10:28:18.596Z,1017.8
2023-06-30T10:30:18.516Z,1017.8
2023-06-30T10:32:18.530Z,1017.9
2023-06-30T10:34:18.545Z,1017.9
2023-06-30T10:36:18.551Z,1017.9
2023-06-30T10:38:18.538Z,1017.9
2023-06-30T10:40:18.644Z,1017.9
2023-06-30T10:42:18.578Z,1017.9
2023-06-30T10:44:19.407Z,1018
2023-06-30T10:46:18.536Z,1018
2023-06-30T10:48:18.499Z,1018.1
2023-06-30T10:50:18.606Z,1018
2023-06-30T10:52:18.493Z,1018.1
2023-06-30T10:54:18.611Z,1018.2
2023-06-30T10:56:18.602Z,1018.2
2023-06-30T10:58:18.502Z,1018.3
2023-06-30T11:00:18.522Z,1018.3
2023-06-30T11:02:18.645Z,1018.3
2023-06-30T11:04:18.680Z,1018.3
2023-06-30T11:06:18.542Z,1018.3
2023-06-30T11:08:18.502Z,1018.4
2023-06-30T11:10:19.878Z,1018.4
2023-06-30T11:12:18.480Z,1018.4
2023-06-30T11:14:19.070Z,1018.4
2023-06-30T11:16:18.476Z,1018.5
2023-06-30T11:18:18.611Z,1018.5
2023-06-30T11:20:18.508Z,1018.6
2023-06-30T11:22:18.431Z,1018.6
2023-06-30T11:24:19.606Z,1018.6
2023-06-30T11:26:18.576Z,1018.7
2023-06-30T11:28:19.952Z,1018.7
2023-06-30T11:30:18.480Z,1018.7
2023-06-30T11:32:18.424Z,1018.7
2023-06-30T11:34:18.440Z,1018.7
2023-06-30T11:36:18.453Z,1018.7
2023-06-30T11:38:18.492Z,1018.7
2023-06-30T11:40:18.528Z,1018.7
2023-06-30T11:42:18.846Z,1018.8
2023-06-30T11:44:18.442Z,1018.7
2023-06-30T11:46:18.586Z,1018.8
2023-06-30T11:48:18.588Z,1018.8
2023-06-30T11:50:20.963Z,1018.9
2023-06-30T11:52:22.313Z,1018.9
2023-06-30T11:54:19.669Z,1018.9
2023-06-30T11:56:19.510Z,1018.9
2023-06-30T11:58:19.821Z,1018.9
2023-06-30T12:00:18.449Z,1018.9
2023-06-30T12:02:18.567Z,1018.9
2023-06-30T12:04:18.594Z,1019
2023-06-30T12:06:18.458Z,1019
2023-06-30T12:08:18.474Z,1019.1
2023-06-30T12:10:18.447Z,1019.1
2023-06-30T12:12:18.429Z,1019.1
2023-06-30T12:14:18.529Z,1019.2
2023-06-30T12:16:26.022Z,1019.2
2023-06-30T12:18:18.469Z,1019.2
2023-06-30T12:20:19.331Z,1019.2
2023-06-30T12:22:18.443Z,1019.3
2023-06-30T12:24:19.589Z,1019.3
2023-06-30T12:26:18.462Z,1019.4
2023-06-30T12:28:18.409Z,1019.4
2023-06-30T12:30:18.535Z,1019.4
2023-06-30T12:32:19.203Z,1019.4
2023-06-30T12:34:18.509Z,1019.5
2023-06-30T12:36:18.427Z,1019.5
2023-06-30T12:38:18.546Z,1019.5
2023-06-30T12:40:18.531Z,1019.5
2023-06-30T12:42:18.422Z,1019.5
2023-06-30T12:44:18.594Z,1019.5
2023-06-30T12:46:20.705Z,1019.5
2023-06-30T12:48:18.476Z,1019.6
2023-06-30T12:50:21.128Z,1019.6
2023-06-30T12:52:18.405Z,1019.5
2023-06-30T12:54:18.378Z,1019.5
2023-06-30T12:56:18.375Z,1019.5
2023-06-30T12:58:24.320Z,1019.5
2023-06-30T13:00:29.084Z,1019.5
2023-06-30T13:02:18.450Z,1019.4
2023-06-30T13:04:18.477Z,1019.4
2023-06-30T13:06:18.456Z,1019.4
2023-06-30T13:08:19.642Z,1019.3
2023-06-30T13:10:18.375Z,1019.3
2023-06-30T13:12:20.177Z,1019.4
2023-06-30T13:14:20.131Z,1019.4
2023-06-30T13:16:18.404Z,1019.4
2023-06-30T13:18:18.528Z,1019.4
2023-06-30T13:20:20.157Z,1019.3
2023-06-30T13:22:19.687Z,1019.3
2023-06-30T13:24:18.350Z,1019.3
2023-06-30T13:26:20.157Z,1019.3
2023-06-30T13:28:19.874Z,1019.3
2023-06-30T13:30:19.661Z,1019.3
2023-06-30T13:32:20.341Z,1019.3
2023-06-30T13:34:18.449Z,1019.3
2023-06-30T13:36:25.509Z,1019.3
2023-06-30T13:38:18.383Z,1019.3
2023-06-30T13:40:18.365Z,1019.2
2023-06-30T13:42:18.343Z,1019.2
2023-06-30T13:44:19.453Z,1019.2
2023-06-30T13:46:19.737Z,1019.2
2023-06-30T13:48:19.505Z,1019.1
2023-06-30T13:50:25.880Z,1019.1
2023-06-30T13:52:18.364Z,1019.1
2023-06-30T13:54:18.319Z,1019.1
2023-06-30T13:56:18.412Z,1019.1
2023-06-30T13:58:19.636Z,1019.1
2023-06-30T14:00:18.646Z,1019.1
2023-06-30T14:02:30.123Z,1018.9
2023-06-30T14:04:19.700Z,1019
2023-06-30T14:06:20.404Z,1019
2023-06-30T14:08:19.824Z,1019
2023-06-30T14:10:18.408Z,1019
2023-06-30T14:12:18.326Z,1019
2023-06-30T14:14:19.411Z,1019
2023-06-30T14:16:18.354Z,1019
2023-06-30T14:18:20.904Z,1019
2023-06-30T14:20:18.404Z,1019
2023-06-30T14:22:18.349Z,1019
2023-06-30T14:24:19.598Z,1019.1
2023-06-30T14:26:18.545Z,1019.1
2023-06-30T14:28:19.291Z,1019.1
2023-06-30T14:30:18.340Z,1019.1
2023-06-30T14:32:48.243Z,1019.1
2023-06-30T14:34:19.328Z,1019
2023-06-30T14:36:18.318Z,1019
2023-06-30T14:38:20.027Z,1019.1
2023-06-30T14:40:18.422Z,1019.1
2023-06-30T14:42:32.318Z,1019
2023-06-30T14:44:19.399Z,1019
2023-06-30T14:46:18.426Z,1019
2023-06-30T14:48:19.730Z,1019
2023-06-30T14:50:18.283Z,1019
2023-06-30T14:52:18.282Z,1019
2023-06-30T14:54:18.435Z,1019
2023-06-30T14:56:19.346Z,1019
2023-06-30T14:58:18.311Z,1019
2023-06-30T15:00:18.431Z,1019
2023-06-30T15:02:18.541Z,1019
2023-06-30T15:04:18.433Z,1019
2023-06-30T15:06:19.286Z,1019
2023-06-30T15:08:25.959Z,1019
2023-06-30T15:10:18.321Z,1018.9
2023-06-30T15:12:18.239Z,1019
2023-06-30T15:14:18.348Z,1019
2023-06-30T15:16:18.242Z,1019
2023-06-30T15:18:18.417Z,1019
2023-06-30T15:20:23.636Z,1018.9
2023-06-30T15:22:18.265Z,1018.9
2023-06-30T15:24:19.477Z,1018.9
2023-06-30T15:26:20.758Z,1018.9
2023-06-30T15:28:22.657Z,1018.8
2023-06-30T15:30:20.829Z,1018.8
2023-06-30T15:32:20.165Z,1018.7
2023-06-30T15:34:18.441Z,1018.7
2023-06-30T15:36:18.252Z,1018.8
2023-06-30T15:38:19.400Z,1018.7
2023-06-30T15:40:18.379Z,1018.7
2023-06-30T15:42:18.393Z,1018.7
2023-06-30T15:44:18.304Z,1018.6
2023-06-30T15:46:19.381Z,1018.6
2023-06-30T15:48:18.305Z,1018.6
2023-06-30T15:50:18.245Z,1018.6
2023-06-30T15:52:19.598Z,1018.6
2023-06-30T15:54:19.417Z,1018.6
2023-06-30T15:56:23.922Z,1018.6
2023-06-30T15:58:18.259Z,1018.6
2023-06-30T16:00:19.043Z,1018.6
2023-06-30T16:02:18.215Z,1018.6
2023-06-30T16:04:18.330Z,1018.6
2023-06-30T16:06:24.021Z,1018.6
2023-06-30T16:08:22.455Z,1018.7
2023-06-30T16:10:18.227Z,1018.6
2023-06-30T16:12:19.335Z,1018.7
2023-06-30T16:14:18.424Z,1018.7
2023-06-30T16:16:18.276Z,1018.7
2023-06-30T16:18:18.295Z,1018.7
2023-06-30T16:20:18.254Z,1018.6
2023-06-30T16:22:18.313Z,1018.6
2023-06-30T16:24:19.273Z,1018.6
2023-06-30T16:26:18.242Z,1018.6
2023-06-30T16:28:18.172Z,1018.6
2023-06-30T16:30:18.324Z,1018.5
2023-06-30T16:32:18.249Z,1018.5
2023-06-30T16:34:18.273Z,1018.5
2023-06-30T16:36:18.191Z,1018.5
2023-06-30T16:38:18.348Z,1018.5
2023-06-30T16:40:22.470Z,1018.5
2023-06-30T16:42:18.166Z,1018.5
2023-06-30T16:44:18.200Z,1018.5
2023-06-30T16:46:19.457Z,1018.4
2023-06-30T16:48:18.213Z,1018.4
2023-06-30T16:50:19.874Z,1018.4
2023-06-30T16:52:18.299Z,1018.3
2023-06-30T16:54:18.187Z,1018.3
2023-06-30T16:56:19.324Z,1018.3
2023-06-30T16:58:18.168Z,1018.1
2023-06-30T17:00:20.874Z,1018
2023-06-30T17:02:18.317Z,1018
2023-06-30T17:04:18.261Z,1018
2023-06-30T17:06:18.409Z,1017.9
2023-06-30T17:08:18.177Z,1017.9
2023-06-30T17:10:18.136Z,1017.9
2023-06-30T17:12:19.319Z,1017.9
2023-06-30T17:14:18.276Z,1017.9
2023-06-30T17:16:18.199Z,1017.9
2023-06-30T17:18:18.382Z,1017.8
2023-06-30T17:20:18.349Z,1017.8
2023-06-30T17:22:18.154Z,1017.7
2023-06-30T17:24:23.163Z,1017.7
2023-06-30T17:26:18.188Z,1017.7
2023-06-30T17:28:18.151Z,1017.7
2023-06-30T17:30:23.683Z,1017.7
2023-06-30T17:32:18.366Z,1017.6
2023-06-30T17:34:18.235Z,1017.6
2023-06-30T17:36:21.158Z,1017.6
2023-06-30T17:38:18.467Z,1017.6
2023-06-30T17:40:18.165Z,1017.6
2023-06-30T17:42:18.196Z,1017.6
2023-06-30T17:44:19.142Z,1017.5
2023-06-30T17:46:18.180Z,1017.5
2023-06-30T17:48:18.111Z,1017.5
2023-06-30T17:50:18.179Z,1017.5
2023-06-30T17:52:18.136Z,1017.4
2023-06-30T17:54:21.083Z,1017.3
2023-06-30T17:56:19.464Z,1017.3
2023-06-30T17:58:18.308Z,1017.3
2023-06-30T18:00:18.318Z,1017.3
2023-06-30T18:02:18.367Z,1017.3
2023-06-30T18:04:18.185Z,1017.2
2023-06-30T18:06:18.094Z,1017.2
2023-06-30T18:08:18.082Z,1017.2
2023-06-30T18:10:18.084Z,1017.2
2023-06-30T18:12:18.075Z,1017.2
2023-06-30T18:14:18.131Z,1017.2
2023-06-30T18:16:18.287Z,1017.2
2023-06-30T18:18:19.293Z,1017.2
2023-06-30T18:20:18.184Z,1017.2
2023-06-30T18:22:18.105Z,1017.2
2023-06-30T18:24:19.534Z,1017.2
2023-06-30T18:26:23.960Z,1017.3
2023-06-30T18:28:18.070Z,1017.3
2023-06-30T18:30:18.061Z,1017.3
2023-06-30T18:32:18.113Z,1017.3
2023-06-30T18:34:20.806Z,1017.2
2023-06-30T18:36:18.129Z,1017.2
2023-06-30T18:38:18.161Z,1017.3
2023-06-30T18:40:18.043Z,1017.3
2023-06-30T18:42:18.157Z,1017.3
2023-06-30T18:44:18.059Z,1017.3
2023-06-30T18:46:18.203Z,1017.2
2023-06-30T18:48:18.097Z,1017
2023-06-30T18:50:18.086Z,1017
2023-06-30T18:52:18.205Z,1017
2023-06-30T18:54:18.148Z,1017
2023-06-30T18:56:18.038Z,1016.9
2023-06-30T18:58:18.119Z,1016.9
2023-06-30T19:00:19.282Z,1016.9
2023-06-30T19:02:18.064Z,1016.9
2023-06-30T19:04:18.130Z,1016.9
2023-06-30T19:06:18.025Z,1016.9
2023-06-30T19:08:17.990Z,1016.8
2023-06-30T19:10:18.139Z,1016.8
2023-06-30T19:12:18.152Z,1016.9
2023-06-30T19:14:18.112Z,1016.8
2023-06-30T19:16:18.178Z,1016.8
2023-06-30T19:18:18.123Z,1016.8
2023-06-30T19:20:18.851Z,1016.9
2023-06-30T19:22:18.040Z,1016.9
2023-06-30T19:24:18.026Z,1016.9
2023-06-30T19:26:19.924Z,1016.9
2023-06-30T19:28:18.066Z,1016.9
2023-06-30T19:30:18.041Z,1016.9
2023-06-30T19:32:20.476Z,1017
2023-06-30T19:34:18.008Z,1016.9
2023-06-30T19:36:18.059Z,1016.9
2023-06-30T19:38:18.080Z,1016.9
2023-06-30T19:40:18.098Z,1016.9
2023-06-30T19:42:18.072Z,1016.9
2023-06-30T19:44:18.032Z,1016.9
2023-06-30T19:46:17.951Z,1017
2023-06-30T19:48:18.013Z,1017
2023-06-30T19:50:18.122Z,1017
2023-06-30T19:52:19.118Z,1017
2023-06-30T19:54:18.086Z,1017
2023-06-30T19:56:19.344Z,1016.9
2023-06-30T19:58:18.163Z,1016.9
2023-06-30T20:00:17.936Z,1016.8
2023-06-30T20:02:18.176Z,1016.9
2023-06-30T20:04:17.989Z,1016.9
2023-06-30T20:06:17.999Z,1017
2023-06-30T20:08:18.014Z,1017.1
2023-06-30T20:10:18.027Z,1017.2
2023-06-30T20:12:19.017Z,1017.2
2023-06-30T20:14:19.206Z,1017.3
2023-06-30T20:16:18.008Z,1017.4
2023-06-30T20:18:18.382Z,1017.3
2023-06-30T20:20:18.076Z,1017.3
2023-06-30T20:22:17.934Z,1017.2
2023-06-30T20:24:19.062Z,1017.2
2023-06-30T20:28:19.368Z,1017.1
2023-06-30T20:30:22.915Z,1017.1
2023-06-30T20:32:19.017Z,1017.1
2023-06-30T20:34:18.181Z,1017.1
2023-06-30T20:36:19.101Z,1017.1
2023-06-30T20:38:19.377Z,1017.1
2023-06-30T20:40:19.541Z,1017.1
2023-06-30T20:42:17.986Z,1017.1
2023-06-30T20:44:17.931Z,1017.1
2023-06-30T20:46:17.920Z,1017.1
2023-06-30T20:48:17.983Z,1017.1
2023-06-30T20:50:19.227Z,1017.1
2023-06-30T20:52:17.878Z,1017.2
2023-06-30T20:54:17.954Z,1017.2
2023-06-30T20:56:17.976Z,1017.2
2023-06-30T20:58:20.621Z,1017.1
2023-06-30T21:00:17.960Z,1017
2023-06-30T21:02:19.252Z,1017
2023-06-30T21:04:18.014Z,1016.9
2023-06-30T21:06:21.937Z,1016.9
2023-06-30T21:08:18.083Z,1016.8
2023-06-30T21:10:17.974Z,1016.8
2023-06-30T21:12:18.347Z,1016.8
2023-06-30T21:14:19.058Z,1016.7
2023-06-30T21:16:17.921Z,1016.8
2023-06-30T21:18:18.018Z,1016.7
2023-06-30T21:20:17.950Z,1016.6
2023-06-30T21:26:30.918Z,1016.6
2023-06-30T21:28:18.144Z,1016.5
2023-06-30T21:30:21.269Z,1016.5
2023-06-30T21:32:17.986Z,1016.4
2023-06-30T21:34:17.992Z,1016.4
2023-06-30T21:36:20.571Z,1016.4
2023-06-30T21:38:17.937Z,1016.4
2023-06-30T21:40:17.932Z,1016.4
2023-06-30T21:42:17.986Z,1016.3
2023-06-30T21:44:17.990Z,1016.3
2023-06-30T21:46:17.881Z,1016.4
2023-06-30T21:48:17.891Z,1016.4
2023-06-30T21:50:18.949Z,1016.4
2023-06-30T21:52:17.815Z,1016.4
2023-06-30T21:54:23.861Z,1016.4
2023-06-30T21:56:17.936Z,1016.4
2023-06-30T21:58:27.207Z,1016.4
2023-06-30T22:00:18.794Z,1016.4
2023-06-30T22:02:19.177Z,1016.5
2023-06-30T22:04:18.101Z,1016.5
2023-06-30T22:06:18.805Z,1016.5
2023-06-30T22:08:17.855Z,1016.5
2023-06-30T22:10:17.936Z,1016.6
2023-06-30T22:12:17.988Z,1016.6
2023-06-30T22:14:17.881Z,1016.6
2023-06-30T22:16:18.043Z,1016.6
2023-06-30T22:18:17.847Z,1016.6
2023-06-30T22:20:17.861Z,1016.7
2023-06-30T22:22:17.877Z,1016.9
2023-06-30T22:24:18.068Z,1017
2023-06-30T22:26:17.942Z,1016.9
2023-06-30T22:28:17.880Z,1017
2023-06-30T22:30:20.144Z,1017
2023-06-30T22:32:17.829Z,1017
2023-06-30T22:34:17.878Z,1016.9
2023-06-30T22:36:17.769Z,1016.8
2023-06-30T22:38:19.103Z,1016.9
2023-06-30T22:40:17.855Z,1016.9
2023-06-30T22:42:19.048Z,1017
2023-06-30T22:44:19.792Z,1017.1
2023-06-30T22:46:17.796Z,1017.2
2023-06-30T22:48:17.890Z,1017.2
2023-06-30T22:50:18.692Z,1017.2
2023-06-30T22:52:17.792Z,1017.2
2023-06-30T22:54:17.950Z,1017.3
2023-06-30T22:56:19.000Z,1017.3
2023-06-30T22:58:17.766Z,1017.3
2023-06-30T23:00:19.020Z,1017.3
2023-06-30T23:02:17.867Z,1017.4
2023-06-30T23:04:17.928Z,1017.5
2023-06-30T23:06:21.145Z,1017.5
2023-06-30T23:08:19.102Z,1017.5
2023-06-30T23:10:19.110Z,1017.5
2023-06-30T23:12:20.108Z,1017.4
2023-06-30T23:14:19.346Z,1017.4
2023-06-30T23:16:17.844Z,1017.4
2023-06-30T23:18:17.875Z,1017.3
2023-06-30T23:20:17.810Z,1017.3
2023-06-30T23:22:20.381Z,1017.4
2023-06-30T23:24:17.953Z,1017.3
2023-06-30T23:26:19.016Z,1017.3
2023-06-30T23:28:19.185Z,1017.3
2023-06-30T23:30:17.833Z,1017.4
2023-06-30T23:32:17.743Z,1017.5
2023-06-30T23:34:17.852Z,1017.4
2023-06-30T23:36:17.876Z,1017.5
2023-06-30T23:38:17.774Z,1017.4
2023-06-30T23:40:17.783Z,1017.4
2023-06-30T23:42:17.780Z,1017.4
2023-06-30T23:44:18.533Z,1017.4
2023-06-30T23:46:18.820Z,1017.4
2023-06-30T23:48:18.623Z,1017.4
2023-06-30T23:50:20.133Z,1017.4
2023-06-30T23:52:17.736Z,1017.4
2023-06-30T23:54:17.813Z,1017.4
2023-06-30T23:56:19.207Z,1017.5
2023-06-30T23:58:17.929Z,1017.5
